createdAt,value
2022-12-17T00:00:50.506Z,86.46
2022-12-17T00:03:37.404Z,86.33
2022-12-17T00:06:23.754Z,85.46
2022-12-17T00:09:10.276Z,85.05
2022-12-17T00:11:56.605Z,83.89
2022-12-17T00:14:43.281Z,83.67
2022-12-17T00:17:29.608Z,83.08
2022-12-17T00:20:16.135Z,82.75
2022-12-17T00:23:02.000Z,82.86
2022-12-17T00:25:48.719Z,82.15
2022-12-17T00:28:34.939Z,82.45
2022-12-17T00:31:21.562Z,82.77
2022-12-17T00:34:07.806Z,82.86
2022-12-17T00:36:54.079Z,83.05
2022-12-17T00:39:42.355Z,82.56
2022-12-17T00:42:28.813Z,82.63
2022-12-17T00:45:16.614Z,82.75
2022-12-17T00:48:07.315Z,84.16
2022-12-17T00:50:53.310Z,84.77
2022-12-17T00:53:44.292Z,84.04
2022-12-17T00:56:30.752Z,84.38
2022-12-17T00:59:17.047Z,83.01
2022-12-17T01:02:03.027Z,82.98
2022-12-17T01:04:49.610Z,83.01
2022-12-17T01:07:35.921Z,82.68
2022-12-17T01:10:22.583Z,82.41
2022-12-17T01:13:16.745Z,82.82
2022-12-17T01:16:03.572Z,81.75
2022-12-17T01:18:50.020Z,82.24
2022-12-17T01:21:36.832Z,82.20
2022-12-17T01:24:23.283Z,82.50
2022-12-17T01:27:09.561Z,84.16
2022-12-17T01:29:56.014Z,82.49
2022-12-17T01:32:42.671Z,82.50
2022-12-17T01:35:28.965Z,82.69
2022-12-17T01:38:17.851Z,82.74
2022-12-17T01:41:10.252Z,82.63
2022-12-17T01:43:57.778Z,82.01
2022-12-17T01:46:46.565Z,81.45
2022-12-17T01:49:33.992Z,82.18
2022-12-17T01:52:22.238Z,81.78
2022-12-17T01:55:08.732Z,81.60
2022-12-17T01:57:56.049Z,81.19
2022-12-17T02:00:43.044Z,81.21
2022-12-17T02:03:35.412Z,81.50
2022-12-17T02:06:44.767Z,81.66
2022-12-17T02:09:58.913Z,81.42
2022-12-17T02:12:57.414Z,82.39
2022-12-17T02:16:02.803Z,81.94
2022-12-17T02:18:58.190Z,82.86
2022-12-17T02:21:46.448Z,81.44
2022-12-17T02:24:32.962Z,81.40
2022-12-17T02:27:24.975Z,81.67
2022-12-17T02:30:36.369Z,81.78
2022-12-17T02:33:23.268Z,82.25
2022-12-17T02:36:18.117Z,82.90
2022-12-17T02:39:07.574Z,82.90
2022-12-17T02:42:09.828Z,82.36
2022-12-17T02:44:58.240Z,82.65
2022-12-17T02:47:47.588Z,82.88
2022-12-17T02:50:33.722Z,83.90
2022-12-17T02:53:21.786Z,83.67
2022-12-17T02:56:08.136Z,83.21
2022-12-17T02:58:54.832Z,86.32
2022-12-17T03:01:41.395Z,87.92
2022-12-17T03:04:28.132Z,88.60
2022-12-17T03:07:34.114Z,87.55
2022-12-17T03:10:22.569Z,85.08
2022-12-17T03:13:08.632Z,84.04
2022-12-17T03:15:55.196Z,83.20
2022-12-17T03:18:41.644Z,82.46
2022-12-17T03:21:27.942Z,82.86
2022-12-17T03:24:16.714Z,82.67
2022-12-17T03:27:03.378Z,84.64
2022-12-17T03:29:49.567Z,86.27
2022-12-17T03:32:36.074Z,85.17
2022-12-17T03:35:22.651Z,84.79
2022-12-17T03:38:09.193Z,84.65
2022-12-17T03:40:55.365Z,85.18
2022-12-17T03:43:41.880Z,84.75
2022-12-17T03:46:28.124Z,83.82
2022-12-17T03:49:15.147Z,84.67
2022-12-17T03:52:01.574Z,83.81
2022-12-17T03:54:47.815Z,84.50
2022-12-17T03:57:34.261Z,84.35
2022-12-17T04:00:20.708Z,82.97
2022-12-17T04:03:07.130Z,82.61
2022-12-17T04:05:53.655Z,82.30
2022-12-17T04:08:40.331Z,81.84
2022-12-17T04:11:26.704Z,81.66
2022-12-17T04:14:13.023Z,81.59
2022-12-17T04:16:59.343Z,80.79
2022-12-17T04:19:45.841Z,81.08
2022-12-17T04:22:32.338Z,81.00
2022-12-17T04:25:18.697Z,80.69
2022-12-17T04:28:04.775Z,80.95
2022-12-17T04:30:51.719Z,81.16
2022-12-17T04:33:38.460Z,79.50
2022-12-17T04:36:25.173Z,80.48
2022-12-17T04:39:11.523Z,81.64
2022-12-17T04:41:57.941Z,81.46
2022-12-17T04:44:44.391Z,81.55
2022-12-17T04:47:30.887Z,82.96
2022-12-17T04:50:17.091Z,83.76
2022-12-17T04:53:03.642Z,84.33
2022-12-17T04:55:50.066Z,85.28
2022-12-17T04:58:37.083Z,81.72
2022-12-17T05:01:23.920Z,80.85
2022-12-17T05:04:10.651Z,80.59
2022-12-17T05:06:56.444Z,79.92
2022-12-17T05:09:42.711Z,80.43
2022-12-17T05:12:31.784Z,79.62
2022-12-17T05:15:18.080Z,79.03
2022-12-17T05:18:04.233Z,79.21
2022-12-17T05:20:50.624Z,79.03
2022-12-17T05:23:37.172Z,79.98
2022-12-17T05:26:44.558Z,80.60
2022-12-17T05:29:31.009Z,80.91
2022-12-17T05:32:17.917Z,79.94
2022-12-17T05:35:04.232Z,80.18
2022-12-17T05:37:50.737Z,82.03
2022-12-17T05:40:37.318Z,86.01
2022-12-17T05:43:26.289Z,82.86
2022-12-17T05:46:12.761Z,82.90
2022-12-17T05:48:59.186Z,85.49
2022-12-17T05:51:45.458Z,83.88
2022-12-17T05:54:31.931Z,86.42
2022-12-17T05:57:18.476Z,83.66
2022-12-17T06:00:04.855Z,84.94
2022-12-17T06:02:58.565Z,84.56
2022-12-17T06:05:45.321Z,83.04
2022-12-17T06:08:31.709Z,82.09
2022-12-17T06:11:19.222Z,82.12
2022-12-17T06:14:05.584Z,83.23
2022-12-17T06:16:52.120Z,83.12
2022-12-17T06:19:38.545Z,83.94
2022-12-17T06:22:25.057Z,85.12
2022-12-17T06:25:15.946Z,82.57
2022-12-17T06:28:02.445Z,83.11
2022-12-17T06:30:48.685Z,83.01
2022-12-17T06:33:35.701Z,81.82
2022-12-17T06:36:42.085Z,82.27
2022-12-17T06:39:28.516Z,80.48
2022-12-17T06:42:14.640Z,80.50
2022-12-17T06:45:00.981Z,79.96
2022-12-17T06:47:47.159Z,80.49
2022-12-17T06:50:33.634Z,79.07
2022-12-17T06:53:25.350Z,79.00
2022-12-17T06:56:12.207Z,78.61
2022-12-17T06:58:58.489Z,78.14
2022-12-17T07:01:45.389Z,78.89
2022-12-17T07:04:31.544Z,78.29
2022-12-17T07:07:18.360Z,78.19
2022-12-17T07:10:06.956Z,77.94
2022-12-17T07:12:56.805Z,77.51
2022-12-17T07:15:43.018Z,77.46
2022-12-17T07:18:29.658Z,77.34
2022-12-17T07:21:15.948Z,77.61
2022-12-17T07:24:02.901Z,77.19
2022-12-17T07:26:49.707Z,77.49
2022-12-17T07:29:36.369Z,77.23
2022-12-17T07:32:24.297Z,78.27
2022-12-17T07:35:10.838Z,78.72
2022-12-17T07:37:57.079Z,78.05
2022-12-17T07:40:43.355Z,77.46
2022-12-17T07:43:31.263Z,77.73
2022-12-17T07:46:18.836Z,77.42
2022-12-17T07:49:05.380Z,77.05
2022-12-17T07:51:51.819Z,77.30
2022-12-17T07:54:37.958Z,77.51
2022-12-17T07:57:24.742Z,77.55
2022-12-17T08:00:10.728Z,77.89
2022-12-17T08:02:57.098Z,77.13
2022-12-17T08:05:43.586Z,77.12
2022-12-17T08:08:32.330Z,77.32
2022-12-17T08:11:18.219Z,77.11
2022-12-17T08:14:05.314Z,77.40
2022-12-17T08:16:51.741Z,76.72
2022-12-17T08:19:38.724Z,76.50
2022-12-17T08:22:24.993Z,76.80
2022-12-17T08:25:11.443Z,77.28
2022-12-17T08:27:57.711Z,77.28
2022-12-17T08:30:44.094Z,77.54
2022-12-17T08:33:30.830Z,78.17
2022-12-17T08:36:17.151Z,77.89
2022-12-17T08:39:04.119Z,77.20
2022-12-17T08:41:54.473Z,77.37
2022-12-17T08:44:42.907Z,77.32
2022-12-17T08:47:29.343Z,76.90
2022-12-17T08:50:15.691Z,76.92
2022-12-17T08:53:02.213Z,78.25
2022-12-17T08:55:48.407Z,77.34
2022-12-17T08:58:34.863Z,77.38
2022-12-17T09:01:21.182Z,77.18
2022-12-17T09:04:08.865Z,76.58
2022-12-17T09:06:55.052Z,76.78
2022-12-17T09:09:41.539Z,76.46
2022-12-17T09:12:31.851Z,75.89
2022-12-17T09:15:18.394Z,76.91
2022-12-17T09:18:05.615Z,76.34
2022-12-17T09:20:51.810Z,76.18
2022-12-17T09:23:38.678Z,75.86
2022-12-17T09:26:25.851Z,75.81
2022-12-17T09:29:12.115Z,75.11
2022-12-17T09:31:59.066Z,75.29
2022-12-17T09:34:45.343Z,75.56
2022-12-17T09:37:31.771Z,75.81
2022-12-17T09:40:17.850Z,75.30
2022-12-17T09:43:17.357Z,75.61
2022-12-17T09:46:28.250Z,75.22
2022-12-17T09:49:28.801Z,74.70
2022-12-17T09:52:15.683Z,74.87
2022-12-17T09:55:07.642Z,73.87
2022-12-17T09:57:55.907Z,74.17
2022-12-17T10:00:47.880Z,74.30
2022-12-17T10:03:38.781Z,73.78
2022-12-17T10:06:34.962Z,73.34
2022-12-17T10:09:30.415Z,73.60
2022-12-17T10:12:31.323Z,72.94
2022-12-17T10:15:17.895Z,72.73
2022-12-17T10:18:04.217Z,72.93
2022-12-17T10:21:15.987Z,72.42
2022-12-17T10:24:02.101Z,72.63
2022-12-17T10:26:51.470Z,72.82
2022-12-17T10:29:47.780Z,73.92
2022-12-17T10:32:34.800Z,72.75
2022-12-17T10:35:39.579Z,72.42
2022-12-17T10:38:56.196Z,73.15
2022-12-17T10:41:44.055Z,74.37
2022-12-17T10:44:47.547Z,75.66
2022-12-17T10:47:40.862Z,76.20
2022-12-17T10:50:36.474Z,77.61
2022-12-17T10:53:34.474Z,77.98
2022-12-17T10:56:22.131Z,79.28
2022-12-17T10:59:12.094Z,78.25
2022-12-17T11:02:00.903Z,78.63
2022-12-17T11:04:54.863Z,81.19
2022-12-17T11:07:56.334Z,78.90
2022-12-17T11:10:46.638Z,79.56
2022-12-17T11:13:47.584Z,78.50
2022-12-17T11:17:08.587Z,78.00
2022-12-17T11:20:03.203Z,77.14
2022-12-17T11:23:10.169Z,77.13
2022-12-17T11:26:28.872Z,76.76
2022-12-17T11:29:16.864Z,76.52
2022-12-17T11:32:23.913Z,76.28
2022-12-17T11:35:17.954Z,77.33
2022-12-17T11:38:33.598Z,76.44
2022-12-17T11:41:40.262Z,77.01
2022-12-17T11:45:08.806Z,75.78
2022-12-17T11:48:12.539Z,75.53
2022-12-17T11:51:28.104Z,75.99
2022-12-17T11:54:26.440Z,77.00
2022-12-17T11:57:29.501Z,75.69
2022-12-17T12:00:34.778Z,77.31
2022-12-17T12:03:36.498Z,75.64
2022-12-17T12:07:09.684Z,75.29
2022-12-17T12:10:19.050Z,76.80
2022-12-17T12:13:16.992Z,77.74
2022-12-17T12:16:11.256Z,77.44
2022-12-17T12:19:00.396Z,77.39
2022-12-17T12:22:20.052Z,80.10
2022-12-17T12:25:21.399Z,78.87
2022-12-17T12:28:31.516Z,77.68
2022-12-17T12:31:36.999Z,78.49
2022-12-17T12:34:30.189Z,75.65
2022-12-17T12:37:21.744Z,76.55
2022-12-17T12:40:24.337Z,75.67
2022-12-17T12:43:21.668Z,75.79
2022-12-17T12:46:21.267Z,76.58
2022-12-17T12:49:15.791Z,76.62
2022-12-17T12:52:02.049Z,76.51
2022-12-17T12:55:10.552Z,76.35
2022-12-17T12:58:14.064Z,76.38
2022-12-17T13:01:06.261Z,76.70
2022-12-17T13:04:11.459Z,79.95
2022-12-17T13:06:54.989Z,77.73
2022-12-17T13:09:48.849Z,77.87
2022-12-17T13:12:24.604Z,77.48
2022-12-17T13:15:07.525Z,76.79
2022-12-17T13:17:44.225Z,78.63
2022-12-17T13:20:28.822Z,77.53
2022-12-17T13:23:11.579Z,77.03
2022-12-17T13:25:39.599Z,76.97
2022-12-17T13:28:27.299Z,77.04
2022-12-17T13:31:18.025Z,77.57
2022-12-17T13:34:02.027Z,76.69
2022-12-17T13:36:59.448Z,75.85
2022-12-17T13:39:35.557Z,76.05
2022-12-17T13:42:16.692Z,76.45
2022-12-17T13:44:46.645Z,76.60
2022-12-17T13:47:26.469Z,75.28
2022-12-17T13:50:32.257Z,75.55
2022-12-17T13:52:45.088Z,75.06
2022-12-17T13:55:29.181Z,75.13
2022-12-17T13:57:58.045Z,74.38
2022-12-17T14:00:32.660Z,74.41
2022-12-17T14:03:10.859Z,74.01
2022-12-17T14:05:43.382Z,73.79
2022-12-17T14:08:20.809Z,73.87
2022-12-17T14:11:14.526Z,73.88
2022-12-17T14:13:45.746Z,74.04
2022-12-17T14:16:21.626Z,74.23
2022-12-17T14:18:53.172Z,74.54
2022-12-17T14:21:28.316Z,74.69
2022-12-17T14:23:57.105Z,74.78
2022-12-17T14:26:25.013Z,74.44
2022-12-17T14:28:56.237Z,74.58
2022-12-17T14:31:28.739Z,74.58
2022-12-17T14:34:07.668Z,74.86
2022-12-17T14:36:37.916Z,74.50
2022-12-17T14:39:25.718Z,74.53
2022-12-17T14:42:15.201Z,74.57
2022-12-17T14:45:14.702Z,74.43
2022-12-17T14:47:54.316Z,74.62
2022-12-17T14:50:22.259Z,74.63
2022-12-17T14:52:57.731Z,74.95
2022-12-17T14:55:35.838Z,74.84
2022-12-17T14:58:29.852Z,74.85
2022-12-17T15:01:12.225Z,74.88
2022-12-17T15:03:46.737Z,74.91
2022-12-17T15:06:19.770Z,75.08
2022-12-17T15:08:49.648Z,75.50
2022-12-17T15:11:20.392Z,75.02
2022-12-17T15:13:54.416Z,75.93
2022-12-17T15:16:24.382Z,75.18
2022-12-17T15:18:52.342Z,75.93
2022-12-17T15:21:20.245Z,76.17
2022-12-17T15:23:48.130Z,75.31
2022-12-17T15:26:17.349Z,75.17
2022-12-17T15:28:44.974Z,75.58
2022-12-17T15:31:15.097Z,74.95
2022-12-17T15:33:43.890Z,75.06
2022-12-17T15:36:12.094Z,75.17
2022-12-17T15:38:42.774Z,74.91
2022-12-17T15:41:29.483Z,76.28
2022-12-17T15:43:57.000Z,75.90
2022-12-17T15:46:25.279Z,75.67
2022-12-17T15:48:53.295Z,75.13
2022-12-17T15:51:21.223Z,75.39
2022-12-17T15:53:50.395Z,74.97
2022-12-17T15:56:24.059Z,74.63
2022-12-17T15:58:52.281Z,74.30
2022-12-17T16:01:20.280Z,73.96
2022-12-17T16:03:48.725Z,74.29
2022-12-17T16:06:17.076Z,74.72
2022-12-17T16:08:45.053Z,75.04
2022-12-17T16:11:15.465Z,74.90
2022-12-17T16:13:43.428Z,74.79
2022-12-17T16:16:11.072Z,74.43
2022-12-17T16:18:39.484Z,74.02
2022-12-17T16:21:09.083Z,74.57
2022-12-17T16:23:36.887Z,74.69
2022-12-17T16:26:06.628Z,74.90
2022-12-17T16:28:36.413Z,74.83
2022-12-17T16:31:11.200Z,74.42
2022-12-17T16:33:42.129Z,74.49
2022-12-17T16:36:13.110Z,74.63
2022-12-17T16:38:59.587Z,74.35
2022-12-17T16:41:27.348Z,74.13
2022-12-17T16:43:55.263Z,74.27
2022-12-17T16:46:38.007Z,74.35
2022-12-17T16:49:18.367Z,74.58
2022-12-17T16:51:48.979Z,74.19
2022-12-17T16:54:20.040Z,74.81
2022-12-17T16:56:48.594Z,74.52
2022-12-17T16:59:16.958Z,75.39
2022-12-17T17:01:48.555Z,75.40
2022-12-17T17:04:17.004Z,76.91
2022-12-17T17:06:50.659Z,76.41
2022-12-17T17:09:19.122Z,76.31
2022-12-17T17:11:51.867Z,75.59
2022-12-17T17:14:22.203Z,75.51
2022-12-17T17:16:50.282Z,75.75
2022-12-17T17:19:18.546Z,76.32
2022-12-17T17:21:52.645Z,77.25
2022-12-17T17:24:23.594Z,78.04
2022-12-17T17:26:53.285Z,79.96
2022-12-17T17:29:21.594Z,81.05
2022-12-17T17:34:37.080Z,82.09
2022-12-17T17:37:04.640Z,82.00
2022-12-17T17:39:34.198Z,82.36
2022-12-17T17:42:02.627Z,83.08
2022-12-17T17:44:30.101Z,82.95
2022-12-17T17:46:58.173Z,82.46
2022-12-17T17:49:26.135Z,82.60
2022-12-17T17:52:11.454Z,82.29
2022-12-17T17:54:40.860Z,82.26
2022-12-17T17:57:09.639Z,82.64
2022-12-17T17:59:39.382Z,81.87
2022-12-17T18:02:10.127Z,81.17
2022-12-17T18:04:38.091Z,80.41
2022-12-17T18:09:53.981Z,80.74
2022-12-17T18:12:41.005Z,80.77
2022-12-17T18:15:14.856Z,80.47
2022-12-17T18:17:45.124Z,80.04
2022-12-17T18:20:13.856Z,79.93
2022-12-17T18:22:41.629Z,79.90
2022-12-17T18:25:09.458Z,80.07
2022-12-17T18:27:37.600Z,79.94
2022-12-17T18:30:05.826Z,79.01
2022-12-17T18:32:33.352Z,79.43
2022-12-17T18:35:01.207Z,78.73
2022-12-17T18:37:28.852Z,78.30
2022-12-17T18:39:56.402Z,78.49
2022-12-17T18:42:42.853Z,78.56
2022-12-17T18:45:13.458Z,78.49
2022-12-17T18:47:42.628Z,79.52
2022-12-17T18:50:11.217Z,78.84
2022-12-17T18:52:39.328Z,79.33
2022-12-17T18:55:10.384Z,78.80
2022-12-17T18:57:38.209Z,78.71
2022-12-17T19:00:06.689Z,78.28
2022-12-17T19:02:34.872Z,78.16
2022-12-17T19:05:02.649Z,78.14
2022-12-17T19:07:30.451Z,78.75
2022-12-17T19:09:58.388Z,77.59
2022-12-17T19:12:25.954Z,77.74
2022-12-17T19:14:53.723Z,76.80
2022-12-17T19:17:21.595Z,76.09
2022-12-17T19:19:49.167Z,76.43
2022-12-17T19:22:16.866Z,76.28
2022-12-17T19:24:44.903Z,77.13
2022-12-17T19:27:12.436Z,76.70
2022-12-17T19:29:43.775Z,76.23
2022-12-17T19:32:15.379Z,76.69
2022-12-17T19:34:43.284Z,76.84
2022-12-17T19:37:10.775Z,75.41
2022-12-17T19:39:38.888Z,75.49
2022-12-17T19:42:24.433Z,75.48
2022-12-17T19:44:56.675Z,76.19
2022-12-17T19:47:24.695Z,75.41
2022-12-17T19:49:52.670Z,75.01
2022-12-17T19:52:20.357Z,74.88
2022-12-17T19:54:49.044Z,74.75
2022-12-17T19:57:17.064Z,74.13
2022-12-17T19:59:44.693Z,74.42
2022-12-17T20:02:12.394Z,74.30
2022-12-17T20:04:40.329Z,74.20
2022-12-17T20:07:07.920Z,73.75
2022-12-17T20:09:35.490Z,73.71
2022-12-17T20:12:03.650Z,73.21
2022-12-17T20:14:31.597Z,72.44
2022-12-17T20:17:01.448Z,72.43
2022-12-17T20:19:31.452Z,72.49
2022-12-17T20:22:04.526Z,73.32
2022-12-17T20:24:32.724Z,71.60
2022-12-17T20:27:01.204Z,72.33
2022-12-17T20:29:29.412Z,71.79
2022-12-17T20:31:57.644Z,70.96
2022-12-17T20:34:25.677Z,70.72
2022-12-17T20:36:54.540Z,69.68
2022-12-17T20:39:27.093Z,69.71
2022-12-17T20:41:56.887Z,69.78
2022-12-17T20:44:25.437Z,69.36
2022-12-17T20:46:53.253Z,69.05
2022-12-17T20:49:21.056Z,69.40
2022-12-17T20:51:49.008Z,69.56
2022-12-17T20:54:16.666Z,68.54
2022-12-17T20:56:44.287Z,68.73
2022-12-17T20:59:17.624Z,69.89
2022-12-17T21:01:50.252Z,68.45
2022-12-17T21:04:21.217Z,68.15
2022-12-17T21:06:48.844Z,69.20
2022-12-17T21:09:20.117Z,68.96
2022-12-17T21:11:48.695Z,69.49
2022-12-17T21:14:17.941Z,70.11
2022-12-17T21:16:46.097Z,70.15
2022-12-17T21:19:20.941Z,70.40
2022-12-17T21:21:48.703Z,69.05
2022-12-17T21:24:16.782Z,69.36
2022-12-17T21:26:47.158Z,69.01
2022-12-17T21:29:15.870Z,69.64
2022-12-17T21:31:48.929Z,69.24
2022-12-17T21:34:22.814Z,68.96
2022-12-17T21:36:51.693Z,69.08
2022-12-17T21:39:19.993Z,69.77
2022-12-17T21:42:07.649Z,69.24
2022-12-17T21:44:36.517Z,67.41
2022-12-17T21:47:04.315Z,67.71
2022-12-17T21:49:32.177Z,67.37
2022-12-17T21:52:01.118Z,67.42
2022-12-17T21:54:28.960Z,66.62
2022-12-17T21:56:56.499Z,66.03
2022-12-17T21:59:24.568Z,66.29
2022-12-17T22:01:52.931Z,66.96
2022-12-17T22:04:21.011Z,67.32
2022-12-17T22:06:52.741Z,68.49
2022-12-17T22:09:27.897Z,68.10
2022-12-17T22:12:28.576Z,69.28
2022-12-17T22:14:56.447Z,68.87
2022-12-17T22:17:24.433Z,69.38
2022-12-17T22:19:52.014Z,69.29
2022-12-17T22:22:20.004Z,69.31
2022-12-17T22:24:47.590Z,68.28
2022-12-17T22:27:15.257Z,68.07
2022-12-17T22:30:01.740Z,67.95
2022-12-17T22:32:48.130Z,66.88
2022-12-17T22:36:16.213Z,66.97
2022-12-17T22:41:58.907Z,67.24
2022-12-17T22:44:34.253Z,67.55
2022-12-17T22:44:36.512Z,67.59
2022-12-17T22:46:32.850Z,67.58
2022-12-17T22:49:00.353Z,66.93
2022-12-17T22:51:36.529Z,67.32
2022-12-17T22:54:12.261Z,65.71
2022-12-17T22:57:32.030Z,66.90
2022-12-17T22:59:30.559Z,66.71
2022-12-17T23:01:58.121Z,66.04
2022-12-17T23:04:25.952Z,65.79
2022-12-17T23:06:53.854Z,64.75
2022-12-17T23:09:21.718Z,65.92
2022-12-17T23:11:49.330Z,66.63
2022-12-17T23:14:18.108Z,65.72
2022-12-17T23:16:45.751Z,65.82
2022-12-17T23:19:14.200Z,64.52
2022-12-17T23:21:42.687Z,64.96
2022-12-17T23:24:10.726Z,65.94
2022-12-17T23:26:39.929Z,66.49
2022-12-17T23:29:19.061Z,66.87
2022-12-17T23:31:47.545Z,67.02
2022-12-17T23:34:15.599Z,66.75
2022-12-17T23:36:43.422Z,64.97
2022-12-17T23:39:11.218Z,64.35
2022-12-17T23:41:39.476Z,64.59
2022-12-17T23:44:07.164Z,65.18
2022-12-17T23:46:34.719Z,63.41
2022-12-17T23:49:06.140Z,63.08
2022-12-17T23:51:34.298Z,64.62
2022-12-17T23:54:02.231Z,64.81
2022-12-17T23:56:30.028Z,64.43
2022-12-17T23:59:00.437Z,64.15
